Weather at Rigshospitalet Helipad

Public forecast

Using degrees Celsius for public forecast. Weather courtesy of forecast.io.

Closest aviation weather report (METAR) to Rigshospitalet Helipad

Closest report is Copenhagen Kastrup Airport, 5.6 nm (10.4 km) SSE.

2024/05/21 01:50 (retrieved 25 minutes ago)

EKCH 210150Z AUTO 04006KT 9999 FEW084/// 13/08 Q1018 NOSIG

Closest aviation forecast (TAF) to Rigshospitalet Helipad

Closest forecast is Dortmund Airport, 306.6 nm (567.8 km) SW.

2024/05/20 21:39 (retrieved 5 hours ago)

TAF EDLW 202130Z 2021/2118 CNL